KCHA/CHA METAR and TAF weather

Enter ICAO airport designator
Station Type Date Time Source
KCHA METAR 2022/06/28 23:53 UTC NOAA

KCHA 282353Z 12006KT 10SM FEW045 BKN080 28/19 A3012 RMK AO2 SLP192 T02830189 10306 20278 53000 $


Station Type Date Time Source
KCHA Decoded METAR 2022/06/28 23:53 UTC NOAA

LOVELL FIELD, TN, United States (KCHA) 35-02N 085-12W 210M
Jun 28, 2022 - 07:53 PM EDT / 2022.06.28 2353 UTC
Wind: from the ESE (120 degrees) at 7 MPH (6 KT):0
Visibility: 10 mile(s):0
Sky conditions: mostly cloudy
Temperature: 82.9 F (28.3 C)
Dew Point: 66.0 F (18.9 C)
Relative Humidity: 56%
Pressure (altimeter): 30.12 in. Hg (1019 hPa)
Pressure tendency: 0.00 inches (0.0 hPa) higher than three hours ago
ob: KCHA 282353Z 12006KT 10SM FEW045 BKN080 28/19 A3012 RMK AO2 SLP192 T02830189 10306 20278 53000
cycle: 0

Station Type Date Time Source
KCHA TAF 2022/06/28 18:33 UTC NOAA

TAF KCHA 281731Z 2818/2918 08004KT P6SM BKN180
FM291200 VRB03KT P6SM SCT050 PROB30 2912/2918 4SM -TSRA BR BKN040CB

Example: see airport list